createdAt,value
2018-08-29T00:00:36.981Z,98004.16
2018-08-29T00:03:07.763Z,98000.35
2018-08-29T00:05:36.986Z,98009.73
2018-08-29T00:08:12.002Z,98002.85
2018-08-29T00:10:41.969Z,98003.29
2018-08-29T00:13:11.214Z,98002.75
2018-08-29T00:15:40.581Z,97999.47
2018-08-29T00:18:09.659Z,97997.88
2018-08-29T00:20:38.782Z,98008.49
2018-08-29T00:23:07.906Z,98006.80
2018-08-29T00:25:37.019Z,98004.75
2018-08-29T00:28:06.598Z,98004.20
2018-08-29T00:30:35.823Z,98005.69
2018-08-29T00:33:04.915Z,98011.16
2018-08-29T00:35:34.013Z,98013.11
2018-08-29T00:38:03.249Z,98018.64
2018-08-29T00:40:32.421Z,98017.53
2018-08-29T00:43:01.494Z,98019.00
2018-08-29T00:45:30.770Z,98015.66
2018-08-29T00:48:00.108Z,98015.22
2018-08-29T00:50:29.277Z,98015.95
2018-08-29T00:52:58.386Z,98015.23
2018-08-29T00:55:27.522Z,98012.82
2018-08-29T00:57:56.605Z,98010.98
2018-08-29T01:00:25.935Z,98017.52
2018-08-29T01:02:55.070Z,98023.16
2018-08-29T01:05:24.145Z,98018.97
2018-08-29T01:07:53.986Z,98016.95
2018-08-29T01:10:23.102Z,98016.39
2018-08-29T01:12:52.232Z,98010.33
2018-08-29T01:15:22.099Z,98010.83
2018-08-29T01:17:51.766Z,98003.07
2018-08-29T01:20:20.853Z,97999.01
2018-08-29T01:22:49.946Z,97990.20
2018-08-29T01:25:19.027Z,97990.68
2018-08-29T01:27:48.123Z,97984.32
2018-08-29T01:30:18.246Z,97978.34
2018-08-29T01:32:47.362Z,97973.17
2018-08-29T01:35:16.515Z,97974.33
2018-08-29T01:37:45.596Z,97974.36
2018-08-29T01:40:14.682Z,97973.76
2018-08-29T01:42:43.806Z,97971.98
2018-08-29T01:45:13.015Z,97974.61
2018-08-29T01:47:42.114Z,97975.14
2018-08-29T01:50:11.969Z,97969.31
2018-08-29T01:52:41.093Z,97970.28
2018-08-29T01:55:10.167Z,97976.88
2018-08-29T01:57:39.305Z,97978.77
2018-08-29T02:00:08.406Z,97974.51
2018-08-29T02:02:37.667Z,97982.50
2018-08-29T02:05:06.822Z,97981.16
2018-08-29T02:07:36.116Z,97973.95
2018-08-29T02:10:05.662Z,97967.14
2018-08-29T02:12:35.159Z,97965.28
2018-08-29T02:15:04.339Z,97974.13
2018-08-29T02:17:33.507Z,97977.97
2018-08-29T02:20:02.649Z,97978.91
2018-08-29T02:22:31.765Z,97972.44
2018-08-29T02:25:00.909Z,97967.51
2018-08-29T02:27:30.046Z,97968.84
2018-08-29T02:29:59.166Z,97972.70
2018-08-29T02:32:28.274Z,97969.43
2018-08-29T02:34:57.447Z,97964.78
2018-08-29T02:37:26.574Z,97968.88
2018-08-29T02:39:55.713Z,97973.09
2018-08-29T02:42:30.108Z,97963.14
2018-08-29T02:45:00.109Z,97955.94
2018-08-29T02:47:29.442Z,97956.61
2018-08-29T02:49:58.823Z,97964.85
2018-08-29T02:52:28.178Z,97965.72
2018-08-29T02:55:01.338Z,97968.03
2018-08-29T02:57:30.429Z,97964.84
2018-08-29T02:59:59.568Z,97959.78
2018-08-29T03:02:28.825Z,97962.45
2018-08-29T03:04:57.985Z,97959.05
2018-08-29T03:07:27.145Z,97958.78
2018-08-29T03:09:55.958Z,97954.66
2018-08-29T03:12:25.116Z,97951.02
2018-08-29T03:14:54.246Z,97956.88
2018-08-29T03:17:23.386Z,97963.14
2018-08-29T03:19:52.492Z,97965.28
2018-08-29T03:22:21.650Z,97962.85
2018-08-29T03:24:50.766Z,97961.64
2018-08-29T03:27:19.866Z,97954.44
2018-08-29T03:29:49.038Z,97957.41
2018-08-29T03:32:18.286Z,97963.48
2018-08-29T03:34:47.506Z,97972.36
2018-08-29T03:37:16.850Z,97968.16
2018-08-29T03:39:45.981Z,97974.47
2018-08-29T03:42:15.112Z,97976.84
2018-08-29T03:44:44.558Z,97971.54
2018-08-29T03:47:13.690Z,97975.47
2018-08-29T03:49:42.830Z,97971.96
2018-08-29T03:52:12.009Z,97967.98
2018-08-29T03:54:41.256Z,97965.24
2018-08-29T03:57:10.405Z,97958.98
2018-08-29T03:59:39.691Z,97956.86
2018-08-29T04:02:09.387Z,97961.41
2018-08-29T04:04:38.787Z,97952.97
2018-08-29T04:07:08.073Z,97954.59
2018-08-29T04:09:37.197Z,97950.83
2018-08-29T04:12:06.073Z,97946.98
2018-08-29T04:14:35.186Z,97950.45
2018-08-29T04:17:05.605Z,97948.06
2018-08-29T04:19:34.703Z,97951.48
2018-08-29T04:22:03.962Z,97944.41
2018-08-29T04:24:33.106Z,97940.40
2018-08-29T04:27:02.214Z,97940.23
2018-08-29T04:29:31.314Z,97943.79
2018-08-29T04:32:00.943Z,97941.67
2018-08-29T04:34:30.054Z,97940.80
2018-08-29T04:36:59.162Z,97940.27
2018-08-29T04:39:28.290Z,97942.29
2018-08-29T04:41:57.413Z,97946.08
2018-08-29T04:44:26.548Z,97944.16
2018-08-29T04:46:55.673Z,97936.81
2018-08-29T04:49:24.789Z,97934.53
2018-08-29T04:51:54.002Z,97933.62
2018-08-29T04:54:23.707Z,97935.55
2018-08-29T04:56:52.975Z,97933.86
2018-08-29T04:59:22.321Z,97935.27
2018-08-29T05:01:52.841Z,97935.08
2018-08-29T05:04:21.977Z,97946.95
2018-08-29T05:06:51.091Z,97942.23
2018-08-29T05:09:20.202Z,97940.02
2018-08-29T05:11:49.342Z,97938.27
2018-08-29T05:14:19.261Z,97936.33
2018-08-29T05:16:48.466Z,97941.67
2018-08-29T05:19:17.600Z,97949.53
2018-08-29T05:21:46.728Z,97954.81
2018-08-29T05:24:15.866Z,97963.28
2018-08-29T05:26:44.991Z,97965.45
2018-08-29T05:29:14.134Z,97961.00
2018-08-29T05:31:43.298Z,97969.31
2018-08-29T05:34:12.497Z,97968.53
2018-08-29T05:39:01.346Z,97967.09
2018-08-29T05:41:30.438Z,97968.05
2018-08-29T05:43:59.562Z,97970.88
2018-08-29T05:46:28.644Z,97971.57
2018-08-29T05:48:57.754Z,97969.64
2018-08-29T05:51:26.874Z,97976.08
2018-08-29T05:53:56.393Z,97969.75
2018-08-29T05:56:25.596Z,97957.72
2018-08-29T05:58:54.694Z,97949.28
2018-08-29T06:01:23.808Z,97949.91
2018-08-29T06:03:52.935Z,97945.30
2018-08-29T06:06:22.808Z,97937.55
2018-08-29T06:08:51.918Z,97946.44
2018-08-29T06:11:21.789Z,97937.80
2018-08-29T06:13:50.978Z,97937.28
2018-08-29T06:16:20.278Z,97937.75
2018-08-29T06:18:49.555Z,97935.23
2018-08-29T06:21:19.050Z,97933.44
2018-08-29T06:23:50.269Z,97932.42
2018-08-29T06:26:19.371Z,97929.91
2018-08-29T06:28:48.489Z,97923.36
2018-08-29T06:31:17.617Z,97935.34
2018-08-29T06:33:46.902Z,97930.14
2018-08-29T06:36:16.002Z,97920.39
2018-08-29T06:38:45.134Z,97921.91
2018-08-29T06:41:15.877Z,97924.12
2018-08-29T06:43:44.992Z,97925.44
2018-08-29T06:46:14.158Z,97923.42
2018-08-29T06:48:43.262Z,97917.71
2018-08-29T06:51:12.359Z,97920.06
2018-08-29T06:53:41.459Z,97914.30
2018-08-29T06:56:10.569Z,97913.61
2018-08-29T06:58:39.790Z,97908.66
2018-08-29T07:01:08.942Z,97910.74
2018-08-29T07:03:38.107Z,97911.52
2018-08-29T07:06:07.319Z,97920.31
2018-08-29T07:08:36.390Z,97915.73
2018-08-29T07:11:05.554Z,97914.52
2018-08-29T07:13:34.697Z,97918.67
2018-08-29T07:16:03.971Z,97920.06
2018-08-29T07:18:35.462Z,97915.72
2018-08-29T07:21:04.618Z,97911.85
2018-08-29T07:23:33.766Z,97911.94
2018-08-29T07:26:02.894Z,97913.94
2018-08-29T07:28:31.996Z,97911.16
2018-08-29T07:31:01.149Z,97906.78
2018-08-29T07:33:30.258Z,97904.72
2018-08-29T07:35:59.768Z,97904.69
2018-08-29T07:38:29.566Z,97906.31
2018-08-29T07:40:58.654Z,97905.53
2018-08-29T07:43:27.773Z,97904.55
2018-08-29T07:45:56.889Z,97902.33
2018-08-29T07:48:26.039Z,97898.08
2018-08-29T07:50:55.214Z,97896.06
2018-08-29T07:53:24.328Z,97894.86
2018-08-29T07:55:53.431Z,97897.04
2018-08-29T07:58:22.539Z,97896.73
2018-08-29T08:00:51.633Z,97897.62
2018-08-29T08:03:20.747Z,97891.06
2018-08-29T08:05:49.886Z,97886.92
2018-08-29T08:08:19.397Z,97882.41
2018-08-29T08:10:48.294Z,97880.05
2018-08-29T08:13:17.619Z,97883.30
2018-08-29T08:15:46.738Z,97879.12
2018-08-29T08:18:15.918Z,97879.95
2018-08-29T08:20:45.137Z,97881.56
2018-08-29T08:23:14.331Z,97883.34
2018-08-29T08:25:43.356Z,97871.17
2018-08-29T08:28:12.470Z,97863.36
2018-08-29T08:30:41.739Z,97876.53
2018-08-29T08:33:10.898Z,97872.59
2018-08-29T08:35:40.002Z,97868.84
2018-08-29T08:38:09.122Z,97862.25
2018-08-29T08:40:38.344Z,97859.06
2018-08-29T08:43:07.607Z,97861.98
2018-08-29T08:45:36.729Z,97861.88
2018-08-29T08:48:05.931Z,97862.91
2018-08-29T08:50:34.954Z,97856.92
2018-08-29T08:53:04.405Z,97858.45
2018-08-29T08:55:33.563Z,97856.95
2018-08-29T08:58:02.684Z,97855.30
2018-08-29T09:00:31.838Z,97859.13
2018-08-29T09:03:00.970Z,97857.03
2018-08-29T09:05:30.405Z,97845.27
2018-08-29T09:07:59.601Z,97844.98
2018-08-29T09:10:28.829Z,97845.44
2018-08-29T09:12:57.994Z,97847.20
2018-08-29T09:15:27.093Z,97840.89
2018-08-29T09:17:56.426Z,97837.34
2018-08-29T09:20:26.251Z,97826.67
2018-08-29T09:22:55.451Z,97839.83
2018-08-29T09:25:25.270Z,97831.47
2018-08-29T09:27:54.015Z,97832.91
2018-08-29T09:30:23.118Z,97829.80
2018-08-29T09:32:52.338Z,97827.28
2018-08-29T09:35:21.747Z,97824.95
2018-08-29T09:37:51.490Z,97822.76
2018-08-29T09:40:20.622Z,97815.86
2018-08-29T09:42:49.749Z,97812.63
2018-08-29T09:45:19.250Z,97815.72
2018-08-29T09:47:48.391Z,97807.67
2018-08-29T09:50:17.486Z,97806.37
2018-08-29T09:52:46.686Z,97796.11
2018-08-29T09:55:15.794Z,97793.52
2018-08-29T09:57:44.882Z,97778.27
2018-08-29T10:00:18.106Z,97782.09
2018-08-29T10:02:52.499Z,97782.55
2018-08-29T10:05:22.235Z,97784.65
2018-08-29T10:07:52.666Z,97782.29
2018-08-29T10:10:22.298Z,97777.88
2018-08-29T10:12:51.682Z,97764.75
2018-08-29T10:15:20.890Z,97752.09
2018-08-29T10:17:49.993Z,97753.26
2018-08-29T10:20:18.694Z,97740.34
2018-08-29T10:22:47.874Z,97734.02
2018-08-29T10:25:17.371Z,97725.66
2018-08-29T10:27:46.487Z,97730.23
2018-08-29T10:30:16.275Z,97729.48
2018-08-29T10:32:45.425Z,97726.69
2018-08-29T10:35:14.574Z,97722.95
2018-08-29T10:37:43.791Z,97716.80
2018-08-29T10:40:12.898Z,97710.47
2018-08-29T10:42:42.014Z,97716.92
2018-08-29T10:45:11.254Z,97712.54
2018-08-29T10:47:40.314Z,97716.43
2018-08-29T10:50:09.470Z,97716.53
2018-08-29T10:52:38.618Z,97709.37
2018-08-29T10:55:07.775Z,97710.07
2018-08-29T10:57:36.946Z,97702.52
2018-08-29T11:00:06.252Z,97695.33
2018-08-29T11:02:35.391Z,97692.91
2018-08-29T11:05:04.636Z,97693.06
2018-08-29T11:07:33.796Z,97694.77
2018-08-29T11:10:03.164Z,97699.72
2018-08-29T11:12:32.394Z,97699.95
2018-08-29T11:15:01.536Z,97698.22
2018-08-29T11:17:30.655Z,97696.82
2018-08-29T11:19:59.453Z,97694.22
2018-08-29T11:22:28.605Z,97689.77
2018-08-29T11:24:57.704Z,97682.90
2018-08-29T11:27:26.807Z,97691.64
2018-08-29T11:29:55.918Z,97684.22
2018-08-29T11:32:25.038Z,97688.71
2018-08-29T11:34:54.501Z,97686.50
2018-08-29T11:37:23.435Z,97679.95
2018-08-29T11:39:52.529Z,97681.99
2018-08-29T11:42:22.202Z,97674.95
2018-08-29T11:44:51.230Z,97687.11
2018-08-29T11:47:20.363Z,97675.27
2018-08-29T11:49:49.458Z,97684.74
2018-08-29T11:52:18.576Z,97678.48
2018-08-29T11:54:47.818Z,97678.94
2018-08-29T11:57:16.925Z,97681.62
2018-08-29T11:59:46.082Z,97677.34
2018-08-29T12:02:15.319Z,97679.38
2018-08-29T12:04:44.578Z,97678.93
2018-08-29T12:07:13.718Z,97673.37
2018-08-29T12:09:42.822Z,97673.19
2018-08-29T12:12:11.997Z,97669.22
2018-08-29T12:14:41.884Z,97662.13
2018-08-29T12:17:10.998Z,97662.66
2018-08-29T12:19:40.227Z,97657.22
2018-08-29T12:22:09.522Z,97652.99
2018-08-29T12:24:38.954Z,97647.66
2018-08-29T12:27:08.558Z,97654.23
2018-08-29T12:29:38.490Z,97657.89
2018-08-29T12:32:07.594Z,97657.21
2018-08-29T12:34:36.945Z,97653.34
2018-08-29T12:37:06.237Z,97655.42
2018-08-29T12:39:35.392Z,97651.22
2018-08-29T12:42:04.510Z,97651.03
2018-08-29T12:44:33.650Z,97642.13
2018-08-29T12:47:02.767Z,97644.25
2018-08-29T12:49:32.251Z,97639.66
2018-08-29T12:52:01.336Z,97641.31
2018-08-29T12:54:30.435Z,97649.09
2018-08-29T12:57:00.040Z,97649.05
2018-08-29T12:59:29.134Z,97645.04
2018-08-29T13:01:58.268Z,97647.15
2018-08-29T13:04:27.367Z,97650.58
2018-08-29T13:06:56.523Z,97649.57
2018-08-29T13:09:26.014Z,97651.52
2018-08-29T13:11:55.204Z,97644.89
2018-08-29T13:14:24.398Z,97648.69
2018-08-29T13:16:53.402Z,97636.48
2018-08-29T13:19:23.274Z,97636.12
2018-08-29T13:21:52.180Z,97636.39
2018-08-29T13:24:21.310Z,97633.59
2018-08-29T13:26:50.511Z,97638.49
2018-08-29T13:29:19.662Z,97641.63
2018-08-29T13:31:48.803Z,97646.57
2018-08-29T13:34:17.914Z,97648.67
2018-08-29T13:36:47.013Z,97656.81
2018-08-29T13:39:16.145Z,97652.66
2018-08-29T13:41:45.246Z,97651.33
2018-08-29T13:44:14.317Z,97651.61
2018-08-29T13:46:44.399Z,97641.41
2018-08-29T13:49:13.511Z,97649.83
2018-08-29T13:51:43.146Z,97656.13
2018-08-29T13:54:12.343Z,97657.22
2018-08-29T13:56:41.479Z,97650.86
2018-08-29T13:59:10.614Z,97656.05
2018-08-29T14:01:39.759Z,97662.03
2018-08-29T14:04:08.852Z,97667.53
2018-08-29T14:06:37.966Z,97659.88
2018-08-29T14:09:07.648Z,97666.03
2018-08-29T14:11:36.707Z,97668.87
2018-08-29T14:14:06.047Z,97670.27
2018-08-29T14:16:35.306Z,97666.27
2018-08-29T14:19:04.440Z,97664.30
2018-08-29T14:21:33.583Z,97669.28
2018-08-29T14:24:03.401Z,97672.58
2018-08-29T14:26:33.213Z,97669.63
2018-08-29T14:29:02.391Z,97674.52
2018-08-29T14:31:31.798Z,97676.67
2018-08-29T14:34:01.335Z,97664.72
2018-08-29T14:36:30.464Z,97666.97
2018-08-29T14:38:59.562Z,97658.38
2018-08-29T14:41:28.678Z,97666.20
2018-08-29T14:43:58.507Z,97666.17
2018-08-29T14:46:27.886Z,97676.53
2018-08-29T14:48:57.475Z,97672.81
2018-08-29T14:51:26.595Z,97675.67
2018-08-29T14:53:55.750Z,97664.89
2018-08-29T14:56:24.905Z,97667.27
2018-08-29T14:58:54.022Z,97660.91
2018-08-29T15:01:40.154Z,97667.05
2018-08-29T15:04:17.305Z,97672.58
2018-08-29T15:06:46.681Z,97675.89
2018-08-29T15:09:16.069Z,97679.84
2018-08-29T15:11:45.555Z,97685.31
2018-08-29T15:14:15.355Z,97692.80
2018-08-29T15:16:45.203Z,97684.75
2018-08-29T15:19:14.395Z,97692.70
2018-08-29T15:21:43.631Z,97697.95
2018-08-29T15:24:13.239Z,97701.00
2018-08-29T15:26:42.430Z,97696.17
2018-08-29T15:29:11.528Z,97699.66
2018-08-29T15:31:40.729Z,97702.06
2018-08-29T15:34:09.830Z,97696.91
2018-08-29T15:36:39.045Z,97702.19
2018-08-29T15:39:10.547Z,97705.84
2018-08-29T15:41:41.311Z,97705.81
2018-08-29T15:44:10.425Z,97702.05
2018-08-29T15:46:40.886Z,97707.11
2018-08-29T15:49:09.985Z,97702.17
2018-08-29T15:51:39.306Z,97707.79
2018-08-29T15:54:08.721Z,97714.22
2018-08-29T15:56:38.348Z,97718.68
2018-08-29T15:59:07.424Z,97716.33
2018-08-29T16:01:36.760Z,97717.48
2018-08-29T16:04:05.888Z,97721.66
2018-08-29T16:06:35.019Z,97724.80
2018-08-29T16:09:04.535Z,97717.44
2018-08-29T16:11:33.642Z,97718.22
2018-08-29T16:14:02.781Z,97715.91
2018-08-29T16:16:31.893Z,97718.01
2018-08-29T16:19:00.984Z,97715.02
2018-08-29T16:21:30.143Z,97720.97
2018-08-29T16:23:59.282Z,97722.02
2018-08-29T16:26:28.439Z,97727.94
2018-08-29T16:28:57.646Z,97719.41
2018-08-29T16:31:26.833Z,97721.23
2018-08-29T16:33:56.130Z,97717.63
2018-08-29T16:36:25.494Z,97720.73
2018-08-29T16:38:54.666Z,97722.66
2018-08-29T16:41:24.429Z,97727.75
2018-08-29T16:43:53.694Z,97729.17
2018-08-29T16:46:23.431Z,97733.02
2018-08-29T16:48:52.525Z,97738.05
2018-08-29T16:51:21.687Z,97749.25
2018-08-29T16:53:50.763Z,97750.06
2018-08-29T16:56:20.339Z,97740.28
2018-08-29T16:58:49.466Z,97741.36
2018-08-29T17:01:18.750Z,97738.41
2018-08-29T17:03:47.897Z,97742.86
2018-08-29T17:06:17.061Z,97740.80
2018-08-29T17:08:46.234Z,97740.09
2018-08-29T17:11:15.376Z,97734.12
2018-08-29T17:13:45.006Z,97740.02
2018-08-29T17:16:14.146Z,97738.70
2018-08-29T17:18:43.310Z,97734.15
2018-08-29T17:21:12.450Z,97732.42
2018-08-29T17:23:41.558Z,97727.80
2018-08-29T17:26:10.468Z,97727.34
2018-08-29T17:28:39.530Z,97736.47
2018-08-29T17:31:08.635Z,97737.50
2018-08-29T17:33:37.822Z,97746.55
2018-08-29T17:36:07.177Z,97749.62
2018-08-29T17:38:36.310Z,97756.57
2018-08-29T17:41:05.553Z,97766.09
2018-08-29T17:43:34.647Z,97762.83
2018-08-29T17:46:03.769Z,97768.52
2018-08-29T17:48:32.867Z,97778.61
2018-08-29T17:51:01.970Z,97777.78
2018-08-29T17:53:31.071Z,97780.86
2018-08-29T17:56:00.861Z,97783.34
2018-08-29T17:58:29.994Z,97790.02
2018-08-29T18:00:59.186Z,97787.85
2018-08-29T18:03:28.335Z,97792.20
2018-08-29T18:05:57.519Z,97798.59
2018-08-29T18:08:27.137Z,97799.48
2018-08-29T18:10:56.247Z,97804.55
2018-08-29T18:13:25.377Z,97810.42
2018-08-29T18:15:54.862Z,97809.35
2018-08-29T18:18:24.001Z,97816.10
2018-08-29T18:20:53.310Z,97823.81
2018-08-29T18:23:22.410Z,97819.90
2018-08-29T18:25:51.226Z,97819.13
2018-08-29T18:28:20.342Z,97827.08
2018-08-29T18:30:49.418Z,97824.81
2018-08-29T18:33:18.593Z,97826.80
2018-08-29T18:35:47.690Z,97828.18
2018-08-29T18:38:18.186Z,97836.03
2018-08-29T18:40:47.357Z,97841.61
2018-08-29T18:43:16.446Z,97839.11
2018-08-29T18:45:45.557Z,97837.88
2018-08-29T18:48:14.691Z,97841.86
2018-08-29T18:50:44.174Z,97846.09
2018-08-29T18:53:13.299Z,97848.02
2018-08-29T18:55:42.416Z,97853.55
2018-08-29T18:58:11.666Z,97853.66
2018-08-29T19:00:40.810Z,97855.19
2018-08-29T19:03:09.998Z,97851.61
2018-08-29T19:05:39.106Z,97858.73
2018-08-29T19:08:09.009Z,97848.16
2018-08-29T19:10:38.321Z,97846.34
2018-08-29T19:13:07.517Z,97850.09
2018-08-29T19:15:36.918Z,97847.79
2018-08-29T19:18:06.039Z,97856.16
2018-08-29T19:20:35.173Z,97853.95
2018-08-29T19:23:04.357Z,97859.78
2018-08-29T19:25:33.467Z,97865.88
2018-08-29T19:28:02.240Z,97870.54
2018-08-29T19:30:31.391Z,97878.38
2018-08-29T19:33:00.886Z,97885.09
2018-08-29T19:35:29.999Z,97888.40
2018-08-29T19:37:59.138Z,97884.98
2018-08-29T19:40:28.275Z,97891.19
2018-08-29T19:42:57.462Z,97890.54
2018-08-29T19:45:26.970Z,97900.44
2018-08-29T19:47:56.331Z,97899.64
2018-08-29T19:50:25.437Z,97897.67
2018-08-29T19:52:54.590Z,97899.77
2018-08-29T19:55:23.722Z,97897.19
2018-08-29T19:57:52.855Z,97894.84
2018-08-29T20:00:21.987Z,97898.00
2018-08-29T20:02:51.088Z,97893.36
2018-08-29T20:05:20.274Z,97893.62
2018-08-29T20:07:49.387Z,97890.84
2018-08-29T20:10:19.064Z,97892.95
2018-08-29T20:12:48.179Z,97895.11
2018-08-29T20:15:17.304Z,97889.71
2018-08-29T20:17:46.447Z,97896.27
2018-08-29T20:20:15.542Z,97896.08
2018-08-29T20:22:44.647Z,97884.47
2018-08-29T20:25:13.797Z,97885.61
2018-08-29T20:27:42.935Z,97884.09
2018-08-29T20:30:12.193Z,97888.02
2018-08-29T20:32:41.861Z,97885.18
2018-08-29T20:35:10.742Z,97880.95
2018-08-29T20:37:39.858Z,97883.54
2018-08-29T20:40:09.014Z,97886.72
2018-08-29T20:42:38.115Z,97884.44
2018-08-29T20:45:07.230Z,97886.38
2018-08-29T20:47:36.362Z,97889.75
2018-08-29T20:50:05.962Z,97889.27
2018-08-29T20:52:35.129Z,97894.77
2018-08-29T20:55:04.291Z,97907.50
2018-08-29T20:57:33.482Z,97911.16
2018-08-29T21:00:02.607Z,97912.73
2018-08-29T21:02:31.710Z,97917.92
2018-08-29T21:05:01.306Z,97917.92
2018-08-29T21:07:30.413Z,97928.33
2018-08-29T21:09:59.527Z,97939.20
2018-08-29T21:12:28.626Z,97939.47
2018-08-29T21:14:57.730Z,97938.95
2018-08-29T21:17:26.990Z,97938.92
2018-08-29T21:19:56.262Z,97936.34
2018-08-29T21:22:25.342Z,97933.26
2018-08-29T21:24:54.420Z,97927.31
2018-08-29T21:27:40.575Z,97934.80
2018-08-29T21:30:26.686Z,97943.91
2018-08-29T21:35:38.666Z,97945.20
2018-08-29T21:38:15.769Z,97954.78
2018-08-29T21:40:45.870Z,97962.30
2018-08-29T21:44:46.957Z,97961.78
2018-08-29T21:51:40.586Z,97968.80
2018-08-29T21:56:23.874Z,97966.97
2018-08-29T22:00:15.823Z,97968.78
2018-08-29T22:03:05.920Z,97980.43
2018-08-29T22:05:35.034Z,97984.06
2018-08-29T22:08:04.130Z,97990.79
2018-08-29T22:10:33.375Z,97991.05
2018-08-29T22:13:03.057Z,97986.39
2018-08-29T22:15:32.154Z,97984.33
2018-08-29T22:18:01.663Z,97986.14
2018-08-29T22:20:30.765Z,97997.02
2018-08-29T22:22:59.922Z,97987.94
2018-08-29T22:25:29.162Z,97989.20
2018-08-29T22:27:58.265Z,97992.56
2018-08-29T22:30:27.633Z,97994.59
2018-08-29T22:32:56.727Z,97992.77
2018-08-29T22:35:26.102Z,97996.14
2018-08-29T22:37:55.199Z,97998.72
2018-08-29T22:40:24.298Z,97999.53
2018-08-29T22:42:53.421Z,97994.36
2018-08-29T22:45:22.558Z,97996.40
2018-08-29T22:47:51.686Z,97997.96
2018-08-29T22:50:20.886Z,98000.55
2018-08-29T22:52:50.024Z,98005.46
2018-08-29T22:55:19.138Z,98015.52
2018-08-29T22:57:48.252Z,98016.02
2018-08-29T23:00:17.333Z,98015.73
2018-08-29T23:02:46.422Z,98022.72
2018-08-29T23:05:15.630Z,98025.58
2018-08-29T23:07:44.742Z,98026.87
2018-08-29T23:10:13.841Z,98031.00
2018-08-29T23:12:42.974Z,98033.09
2018-08-29T23:15:12.073Z,98035.94
2018-08-29T23:17:41.166Z,98036.70
2018-08-29T23:20:10.313Z,98036.38
2018-08-29T23:22:39.406Z,98035.63
2018-08-29T23:25:08.494Z,98045.16
2018-08-29T23:27:37.635Z,98048.51
2018-08-29T23:30:07.346Z,98045.14
2018-08-29T23:32:36.707Z,98043.60
2018-08-29T23:35:06.218Z,98051.36
2018-08-29T23:37:35.403Z,98052.88
2018-08-29T23:40:04.803Z,98054.69
2018-08-29T23:42:34.050Z,98056.23
2018-08-29T23:45:02.866Z,98054.72
2018-08-29T23:47:32.155Z,98061.70
2018-08-29T23:50:01.246Z,98055.14
2018-08-29T23:52:30.384Z,98063.95
2018-08-29T23:54:59.925Z,98059.00
2018-08-29T23:57:29.066Z,98073.73
2018-08-29T23:59:58.204Z,98070.64
